Terminal Aerodrome Forecast
Issued by NWS Sterling, VA

Current Version | Previous Version | Graphics & Text | Print | Product List | Glossary On
Versions: 1 2 3 4 5 6 7 8 9 10 11 12 13 14 15 16 17 18
000
FTUS41 KLWX 302331
TAFMRB
TAF
KMRB 302331Z 0100/0124 18006KT P6SM VCTS BKN050CB
     FM010300 VRB05KT P6SM -SHRA VCTS BKN050CB
     FM010600 VRB03KT P6SM SCT080
     FM011400 26008KT P6SM SCT050=

USA.gov is the U.S. government's official web portal to all federal, state and local government web resources and services.